createdAt,value
2023-05-10T00:03:05.995Z,98567.91
2023-05-10T00:08:08.521Z,98584.81
2023-05-10T00:13:10.667Z,98574.34
2023-05-10T00:18:12.972Z,98563.00
2023-05-10T00:23:15.630Z,98529.28
2023-05-10T00:28:17.912Z,98536.88
2023-05-10T00:33:20.166Z,98546.56
2023-05-10T00:38:22.322Z,98536.38
2023-05-10T00:43:24.547Z,98562.19
2023-05-10T00:48:27.089Z,98554.50
2023-05-10T00:53:29.866Z,98570.31
2023-05-10T00:58:32.213Z,98573.38
2023-05-10T01:03:34.757Z,98576.53
2023-05-10T01:08:38.028Z,98562.56
2023-05-10T01:13:43.622Z,98541.47
2023-05-10T01:18:46.323Z,98566.72
2023-05-10T01:24:36.555Z,98557.06
2023-05-10T01:30:13.582Z,98544.53
2023-05-10T01:35:38.678Z,98571.13
2023-05-10T01:41:09.828Z,98565.78
2023-05-10T01:46:30.121Z,98550.97
2023-05-10T01:51:47.262Z,98568.72
2023-05-10T01:57:00.638Z,98600.47
2023-05-10T02:02:04.224Z,98581.50
2023-05-10T02:07:08.094Z,98591.09
2023-05-10T02:12:11.301Z,98592.66
2023-05-10T02:17:14.342Z,98607.59
2023-05-10T02:22:18.365Z,98612.75
2023-05-10T02:27:21.659Z,98604.19
2023-05-10T02:32:26.406Z,98589.66
2023-05-10T02:37:28.774Z,98595.16
2023-05-10T02:42:34.568Z,98603.44
2023-05-10T02:47:37.050Z,98615.63
2023-05-10T02:52:49.317Z,98614.16
2023-05-10T02:58:01.279Z,98610.25
2023-05-10T03:03:04.057Z,98629.84
2023-05-10T03:08:07.319Z,98598.38
2023-05-10T03:13:30.848Z,98624.31
2023-05-10T03:18:49.580Z,98625.06
2023-05-10T03:24:14.022Z,98626.75
2023-05-10T03:29:17.449Z,98609.06
2023-05-10T03:34:25.838Z,98614.59
2023-05-10T03:39:28.507Z,98651.13
2023-05-10T03:44:34.492Z,98627.59
2023-05-10T03:49:36.670Z,98629.63
2023-05-10T03:54:39.638Z,98623.38
2023-05-10T03:59:41.927Z,98598.63
2023-05-10T04:04:44.195Z,98571.84
2023-05-10T04:09:47.738Z,98591.19
2023-05-10T04:14:50.243Z,98626.13
2023-05-10T04:19:55.449Z,98637.13
2023-05-10T04:24:57.611Z,98639.88
2023-05-10T04:29:59.949Z,98595.59
2023-05-10T04:35:04.607Z,98636.53
2023-05-10T04:40:07.873Z,98601.97
2023-05-10T04:45:11.150Z,98636.88
2023-05-10T04:50:13.544Z,98638.44
2023-05-10T04:55:16.064Z,98610.66
2023-05-10T05:00:18.800Z,98656.22
2023-05-10T05:05:21.108Z,98649.63
2023-05-10T05:10:23.366Z,98660.22
2023-05-10T05:15:25.544Z,98650.03
2023-05-10T05:20:27.688Z,98643.34
2023-05-10T05:25:30.129Z,98669.69
2023-05-10T05:30:32.655Z,98649.34
2023-05-10T05:35:35.154Z,98672.97
2023-05-10T05:40:37.499Z,98658.06
2023-05-10T05:45:39.851Z,98712.31
2023-05-10T05:50:41.971Z,98708.34
2023-05-10T05:55:58.817Z,98708.38
2023-05-10T06:01:01.023Z,98677.69
2023-05-10T06:06:03.354Z,98719.72
2023-05-10T06:11:05.554Z,98729.22
2023-05-10T06:16:08.304Z,98701.16
2023-05-10T06:21:10.606Z,98737.34
2023-05-10T06:26:13.111Z,98752.66
2023-05-10T06:31:15.407Z,98744.38
2023-05-10T06:36:17.752Z,98756.13
2023-05-10T06:41:19.983Z,98750.72
2023-05-10T06:46:22.275Z,98749.59
2023-05-10T06:51:24.544Z,98745.94
2023-05-10T06:56:27.130Z,98776.59
2023-05-10T07:01:29.458Z,98804.88
2023-05-10T07:06:33.782Z,98770.88
2023-05-10T07:11:37.322Z,98811.69
2023-05-10T07:16:39.655Z,98762.34
2023-05-10T07:21:44.299Z,98779.44
2023-05-10T07:26:46.649Z,98792.13
2023-05-10T07:31:48.910Z,98812.09
2023-05-10T07:36:51.283Z,98777.72
2023-05-10T07:41:53.553Z,98791.75
2023-05-10T07:46:56.790Z,98794.38
2023-05-10T07:51:59.042Z,98797.63
2023-05-10T07:57:02.195Z,98808.19
2023-05-10T08:02:04.548Z,98825.06
2023-05-10T08:07:06.871Z,98819.28
2023-05-10T08:12:09.006Z,98828.13
2023-05-10T08:17:11.180Z,98815.75
2023-05-10T08:22:13.778Z,98814.97
2023-05-10T08:27:16.167Z,98795.88
2023-05-10T08:32:19.237Z,98787.66
2023-05-10T08:37:21.498Z,98838.88
2023-05-10T08:42:28.682Z,98808.13
2023-05-10T08:47:31.209Z,98819.03
2023-05-10T08:52:34.911Z,98871.13
2023-05-10T08:57:38.107Z,98849.16
2023-05-10T09:02:41.324Z,98873.47
2023-05-10T09:07:43.849Z,98874.66
2023-05-10T09:12:46.848Z,98918.03
2023-05-10T09:17:51.137Z,98888.75
2023-05-10T09:22:53.406Z,98908.97
2023-05-10T09:27:56.607Z,98934.31
2023-05-10T09:33:00.897Z,98928.50
2023-05-10T09:38:06.002Z,98928.34
2023-05-10T09:43:09.510Z,98922.97
2023-05-10T09:48:11.807Z,98895.72
2023-05-10T09:53:17.792Z,98919.28
2023-05-10T09:58:20.130Z,98894.13
2023-05-10T10:03:23.708Z,98897.59
2023-05-10T10:08:26.825Z,98971.94
2023-05-10T10:13:29.143Z,98956.25
2023-05-10T10:18:32.723Z,98920.25
2023-05-10T10:23:36.308Z,98936.38
2023-05-10T10:29:25.060Z,98899.44
2023-05-10T10:34:30.460Z,98890.16
2023-05-10T10:39:33.515Z,98947.75
2023-05-10T10:44:39.349Z,98911.13
2023-05-10T10:49:44.612Z,98921.03
2023-05-10T10:55:26.041Z,98932.06
2023-05-10T11:00:39.473Z,98962.09
2023-05-10T11:05:49.954Z,98893.19
2023-05-10T11:11:16.050Z,98895.22
2023-05-10T11:16:26.548Z,98879.00
2023-05-10T11:21:30.311Z,98912.50
2023-05-10T11:26:35.801Z,98965.44
2023-05-10T11:31:47.919Z,98925.81
2023-05-10T11:36:54.976Z,98930.44
2023-05-10T11:41:58.346Z,99001.03
2023-05-10T11:47:02.452Z,98923.34
2023-05-10T11:52:09.552Z,98904.59
2023-05-10T11:57:11.674Z,98969.63
2023-05-10T12:02:16.229Z,98916.06
2023-05-10T12:07:18.958Z,98915.44
2023-05-10T12:12:21.324Z,98881.56
2023-05-10T12:17:23.547Z,98906.31
2023-05-10T12:22:25.963Z,98928.34
2023-05-10T12:27:33.930Z,98923.41
2023-05-10T12:32:44.841Z,98893.34
2023-05-10T12:37:47.023Z,98960.31
2023-05-10T12:42:49.846Z,98946.66
2023-05-10T12:47:52.082Z,98880.09
2023-05-10T12:52:54.340Z,98923.50
2023-05-10T12:57:56.490Z,98925.59
2023-05-10T13:02:58.782Z,98929.03
2023-05-10T13:08:01.219Z,98909.03
2023-05-10T13:13:03.894Z,98929.94
2023-05-10T13:18:06.373Z,98958.75
2023-05-10T13:23:08.683Z,98883.56
2023-05-10T13:28:11.023Z,98917.66
2023-05-10T13:33:13.311Z,98950.88
2023-05-10T13:38:15.624Z,98929.13
2023-05-10T13:43:17.976Z,98923.50
2023-05-10T13:48:20.157Z,98891.16
2023-05-10T13:53:22.828Z,98939.91
2023-05-10T13:58:25.110Z,98967.91
2023-05-10T14:03:27.488Z,98987.09
2023-05-10T14:08:29.886Z,98901.16
2023-05-10T14:13:32.436Z,98923.84
2023-05-10T14:18:34.779Z,98922.22
2023-05-10T14:23:37.137Z,98917.75
2023-05-10T14:28:39.500Z,98945.31
2023-05-10T14:33:42.334Z,98924.03
2023-05-10T14:38:44.466Z,98899.13
2023-05-10T14:43:47.118Z,98972.25
2023-05-10T14:48:49.221Z,98912.38
2023-05-10T14:53:51.605Z,98884.03
2023-05-10T14:58:54.010Z,98948.34
2023-05-10T15:03:56.871Z,99000.41
2023-05-10T15:08:59.636Z,98892.28
2023-05-10T15:14:03.053Z,98889.97
2023-05-10T15:19:05.437Z,98886.75
2023-05-10T15:24:08.096Z,98865.88
2023-05-10T15:29:10.561Z,98879.69
2023-05-10T15:34:12.873Z,98968.03
2023-05-10T15:39:15.054Z,98920.13
2023-05-10T15:44:17.711Z,98840.41
2023-05-10T15:49:19.869Z,98852.97
2023-05-10T15:54:22.950Z,98922.06
2023-05-10T15:59:25.253Z,98863.75
2023-05-10T16:04:27.516Z,98870.16
2023-05-10T16:09:29.874Z,98930.03
2023-05-10T16:14:32.310Z,98901.53
2023-05-10T16:19:34.572Z,98884.16
2023-05-10T16:24:37.064Z,98885.75
2023-05-10T16:29:39.299Z,98936.16
2023-05-10T16:34:41.460Z,98891.44
2023-05-10T16:39:43.928Z,98955.63
2023-05-10T16:44:46.150Z,98970.13
2023-05-10T16:49:48.476Z,98898.13
2023-05-10T16:54:50.598Z,98954.13
2023-05-10T16:59:56.341Z,98935.91
2023-05-10T17:04:58.598Z,98919.22
2023-05-10T17:10:00.918Z,98888.69
2023-05-10T17:15:03.463Z,98900.25
2023-05-10T17:20:07.378Z,98941.75
2023-05-10T17:25:11.997Z,98925.28
2023-05-10T17:30:14.833Z,98905.06
2023-05-10T17:35:17.422Z,98904.59
2023-05-10T17:40:20.173Z,98922.84
2023-05-10T17:45:22.749Z,98973.19
2023-05-10T17:50:25.100Z,98877.22
2023-05-10T17:55:30.063Z,98904.25
2023-05-10T18:00:32.598Z,98847.00
2023-05-10T18:05:39.483Z,98903.25
2023-05-10T18:10:42.010Z,98886.63
2023-05-10T18:15:44.434Z,98841.41
2023-05-10T18:20:46.633Z,98886.31
2023-05-10T18:25:48.959Z,98869.84
2023-05-10T18:38:04.718Z,98901.16
2023-05-10T18:43:06.873Z,98916.94
2023-05-10T18:48:09.090Z,98911.06
2023-05-10T18:53:11.373Z,98885.81
2023-05-10T18:58:13.657Z,98914.97
2023-05-10T19:03:16.053Z,98944.19
2023-05-10T19:08:18.662Z,98953.47
2023-05-10T19:13:21.282Z,98893.56
2023-05-10T19:18:23.523Z,98866.94
2023-05-10T19:23:25.856Z,98909.59
2023-05-10T19:28:28.418Z,98903.31
2023-05-10T19:33:30.792Z,98911.94
2023-05-10T19:38:33.375Z,98929.59
2023-05-10T19:43:37.456Z,98904.09
2023-05-10T19:48:39.617Z,98887.53
2023-05-10T19:53:44.930Z,98922.28
2023-05-10T19:58:47.439Z,98910.09
2023-05-10T20:03:49.749Z,98938.94
2023-05-10T20:08:52.071Z,98940.50
2023-05-10T20:13:54.357Z,98928.19
2023-05-10T20:18:56.518Z,98913.63
2023-05-10T20:23:58.653Z,98901.41
2023-05-10T20:29:00.804Z,98921.97
2023-05-10T20:34:03.030Z,98910.47
2023-05-10T20:39:05.475Z,98858.44
2023-05-10T20:44:07.687Z,98838.69
2023-05-10T20:49:10.148Z,98881.31
2023-05-10T20:54:12.309Z,98909.72
2023-05-10T20:59:14.459Z,98910.13
2023-05-10T21:04:21.851Z,98878.97
2023-05-10T21:09:24.497Z,98871.84
2023-05-10T21:14:26.824Z,98898.31
2023-05-10T21:19:29.086Z,98899.88
2023-05-10T21:24:31.458Z,98904.59
2023-05-10T21:29:33.755Z,98893.56
2023-05-10T21:34:36.096Z,98897.47
2023-05-10T21:39:38.787Z,98875.81
2023-05-10T21:44:41.049Z,98884.88
2023-05-10T21:49:43.541Z,98882.88
2023-05-10T21:54:45.874Z,98897.88
2023-05-10T21:59:48.035Z,98863.19
2023-05-10T22:04:51.295Z,98871.06
2023-05-10T22:09:53.642Z,98846.97
2023-05-10T22:15:09.406Z,98859.63
2023-05-10T22:20:13.260Z,98888.41
2023-05-10T22:25:15.678Z,98871.06
2023-05-10T22:30:19.916Z,98850.94
2023-05-10T22:35:22.545Z,98841.06
2023-05-10T22:40:24.837Z,98832.38
2023-05-10T22:45:27.694Z,98838.69
2023-05-10T22:50:31.007Z,98872.22
2023-05-10T22:55:33.447Z,98872.59
2023-05-10T23:00:35.830Z,98872.19
2023-05-10T23:05:38.030Z,98878.91
2023-05-10T23:10:40.254Z,98879.75
2023-05-10T23:15:43.718Z,98878.94
2023-05-10T23:20:46.010Z,98882.09
2023-05-10T23:25:48.454Z,98848.16
2023-05-10T23:30:58.726Z,98827.59
2023-05-10T23:36:01.045Z,98840.19
2023-05-10T23:41:03.566Z,98870.25
2023-05-10T23:46:06.683Z,98864.34
2023-05-10T23:51:09.021Z,98826.78
2023-05-10T23:56:11.910Z,98822.03
